Time,TemperatureF,DewpointF,PressureIn,WindDirection,WindDirectionDegrees,WindSpeedMPH,WindSpeedGustMPH,Humidity,HourlyPrecipIn,Conditions,Clouds,dailyrainin,SoftwareType,DateUTC
2013-01-06 00:00:00,32.5,29.0,29.97,SW,215,6.3,7.9,87,0.00,,---,0.00,VWS V14.01,2013-01-06 05:00:00,
2013-01-06 00:01:00,32.5,29.0,29.97,SW,215,8.6,8.6,87,0.00,,---,0.00,VWS V14.01,2013-01-06 05:01:00,
2013-01-06 00:03:00,32.5,28.8,29.97,South,170,8.6,8.9,86,0.00,,---,0.00,VWS V14.01,2013-01-06 05:03:00,
2013-01-06 00:08:00,32.5,28.8,29.97,SW,215,6.3,9.6,86,0.00,,---,0.00,VWS V14.01,2013-01-06 05:08:00,
2013-01-06 00:11:00,32.5,28.8,29.97,SW,215,7.3,10.6,86,0.00,,---,0.00,VWS V14.01,2013-01-06 05:11:00,
2013-01-06 00:16:00,32.5,28.5,29.97,South,170,5.0,8.6,85,0.00,,---,0.00,VWS V14.01,2013-01-06 05:16:00,
2013-01-06 00:21:00,32.5,28.5,29.97,West,260,7.9,7.9,85,0.00,,---,0.00,VWS V14.01,2013-01-06 05:21:00,
2013-01-06 00:27:00,32.5,28.5,29.97,SW,215,4.6,4.6,85,0.00,,---,0.00,VWS V14.01,2013-01-06 05:27:00,
2013-01-06 00:32:00,32.7,28.4,29.94,SW,215,9.3,9.3,84,0.00,,---,0.00,VWS V14.01,2013-01-06 05:32:00,
2013-01-06 00:37:00,32.7,28.4,29.94,South,170,7.9,7.9,84,0.00,,---,0.00,VWS V14.01,2013-01-06 05:37:00,
2013-01-06 00:42:00,32.7,28.4,29.94,South,170,7.9,7.9,84,0.00,,---,0.00,VWS V14.01,2013-01-06 05:42:00,
2013-01-06 00:47:00,32.7,28.4,29.94,SW,215,9.6,9.6,84,0.00,,---,0.00,VWS V14.01,2013-01-06 05:47:00,
2013-01-06 00:52:00,32.7,28.4,29.94,SW,215,9.6,9.6,84,0.00,,---,0.00,VWS V14.01,2013-01-06 05:52:00,
2013-01-06 00:57:00,32.8,28.2,29.94,SW,215,9.6,9.6,83,0.00,,---,0.00,VWS V14.01,2013-01-06 05:57:00,
2013-01-06 01:02:00,32.8,28.2,29.94,SW,215,9.6,9.6,83,0.00,,---,0.00,VWS V14.01,2013-01-06 06:02:00,
2013-01-06 01:07:00,32.8,28.2,29.94,West,260,8.6,8.6,83,0.00,,---,0.00,VWS V14.01,2013-01-06 06:07:00,
2013-01-06 01:12:00,32.8,28.2,29.94,West,260,8.6,8.6,83,0.00,,---,0.00,VWS V14.01,2013-01-06 06:12:00,
2013-01-06 01:17:00,32.8,28.2,29.94,West,260,8.6,8.6,83,0.00,,---,0.00,VWS V14.01,2013-01-06 06:17:00,
2013-01-06 01:22:00,33.2,28.6,29.94,West,260,8.6,8.6,83,0.00,,---,0.00,VWS V14.01,2013-01-06 06:22:00,
2013-01-06 01:27:00,33.2,28.6,29.94,SW,215,8.3,8.3,83,0.00,,---,0.00,VWS V14.01,2013-01-06 06:27:00,
2013-01-06 01:32:00,33.2,28.6,29.94,SW,215,8.3,8.3,83,0.00,,---,0.00,VWS V14.01,2013-01-06 06:32:00,
2013-01-06 01:37:00,33.2,28.6,29.94,SW,215,8.3,8.3,83,0.00,,---,0.00,VWS V14.01,2013-01-06 06:37:00,
2013-01-06 01:42:00,33.2,28.9,29.94,SW,215,11.6,11.6,84,0.00,,---,0.00,VWS V14.01,2013-01-06 06:42:00,
2013-01-06 01:47:00,33.2,28.9,29.91,SW,215,11.6,11.6,84,0.00,,---,0.00,VWS V14.01,2013-01-06 06:47:00,
2013-01-06 01:52:00,33.2,28.9,29.91,West,260,10.6,10.6,84,0.00,,---,0.00,VWS V14.01,2013-01-06 06:52:00,
2013-01-06 01:57:00,33.0,29.0,29.91,West,260,10.6,10.6,85,0.00,,---,0.00,VWS V14.01,2013-01-06 06:57:00,
2013-01-06 02:02:00,33.0,29.0,29.91,West,260,10.6,10.6,85,0.00,,---,0.00,VWS V14.01,2013-01-06 07:02:00,
2013-01-06 02:07:00,33.0,29.0,29.91,SW,215,11.3,11.3,85,0.00,,---,0.00,VWS V14.01,2013-01-06 07:07:00,
2013-01-06 02:13:00,33.0,29.0,29.91,SW,215,8.3,8.3,85,0.00,,---,0.00,VWS V14.01,2013-01-06 07:13:00,
2013-01-06 02:17:00,33.0,29.3,29.91,SW,215,8.3,8.3,86,0.00,,---,0.00,VWS V14.01,2013-01-06 07:17:00,
2013-01-06 02:23:00,33.0,29.3,29.91,SW,215,8.3,8.3,86,0.00,,---,0.00,VWS V14.01,2013-01-06 07:23:00,
2013-01-06 02:28:00,33.0,29.3,29.91,SW,215,8.3,8.3,86,0.00,,---,0.00,VWS V14.01,2013-01-06 07:28:00,
2013-01-06 02:33:00,33.0,29.3,29.91,SW,215,8.3,8.3,86,0.00,,---,0.00,VWS V14.01,2013-01-06 07:33:00,
2013-01-06 02:38:00,33.0,29.3,29.91,SW,215,8.3,8.3,86,0.00,,---,0.00,VWS V14.01,2013-01-06 07:38:00,
2013-01-06 02:43:00,33.2,29.5,29.91,SW,215,8.3,8.3,86,0.00,,---,0.00,VWS V14.01,2013-01-06 07:43:00,
2013-01-06 02:48:00,33.2,29.5,29.91,SW,215,8.3,8.3,86,0.00,,---,0.00,VWS V14.01,2013-01-06 07:48:00,
2013-01-06 02:53:00,33.0,29.3,29.91,SW,215,8.3,8.3,86,0.00,,---,0.00,VWS V14.01,2013-01-06 07:53:00,
2013-01-06 02:58:00,33.0,29.3,29.91,SW,215,4.6,4.6,86,0.00,,---,0.00,VWS V14.01,2013-01-06 07:58:00,
2013-01-06 03:03:00,33.0,29.3,29.91,SW,215,4.6,4.6,86,0.00,,---,0.00,VWS V14.01,2013-01-06 08:03:00,
2013-01-06 03:08:00,33.2,29.5,29.91,SW,215,4.6,4.6,86,0.00,,---,0.00,VWS V14.01,2013-01-06 08:08:00,
2013-01-06 03:13:00,33.2,29.5,29.91,SW,215,6.3,6.3,86,0.00,,---,0.00,VWS V14.01,2013-01-06 08:13:00,
2013-01-06 03:18:00,33.2,29.5,29.91,SW,215,6.3,6.3,86,0.00,,---,0.00,VWS V14.01,2013-01-06 08:18:00,
2013-01-06 03:23:00,33.2,29.5,29.91,SW,215,6.3,6.3,86,0.00,,---,0.00,VWS V14.01,2013-01-06 08:23:00,
2013-01-06 03:28:00,33.2,29.5,29.91,SW,215,6.3,6.3,86,0.00,,---,0.00,VWS V14.01,2013-01-06 08:28:00,
2013-01-06 03:33:00,33.2,29.5,29.91,SW,215,6.3,6.3,86,0.00,,---,0.00,VWS V14.01,2013-01-06 08:33:00,
2013-01-06 03:39:00,33.2,29.5,29.91,SW,215,6.3,6.3,86,0.00,,---,0.00,VWS V14.01,2013-01-06 08:39:00,
2013-01-06 03:44:00,33.2,29.5,29.91,SW,215,6.3,6.3,86,0.00,,---,0.00,VWS V14.01,2013-01-06 08:44:00,
2013-01-06 03:49:00,33.2,29.5,29.91,SW,215,6.3,6.3,86,0.00,,---,0.00,VWS V14.01,2013-01-06 08:49:00,
2013-01-06 03:54:00,33.2,29.5,29.91,SW,215,6.3,6.3,86,0.00,,---,0.00,VWS V14.01,2013-01-06 08:54:00,
2013-01-06 03:59:00,33.4,29.4,29.91,SW,215,6.3,6.3,85,0.00,,---,0.00,VWS V14.01,2013-01-06 08:59:00,
2013-01-06 04:04:00,33.4,29.4,29.91,SW,215,6.3,6.3,85,0.00,,---,0.00,VWS V14.01,2013-01-06 09:04:00,
2013-01-06 04:09:00,33.4,29.4,29.91,SW,215,6.3,6.3,85,0.00,,---,0.00,VWS V14.01,2013-01-06 09:09:00,
2013-01-06 04:14:00,33.4,29.4,29.88,SW,215,7.3,7.3,85,0.00,,---,0.00,VWS V14.01,2013-01-06 09:14:00,
2013-01-06 04:19:00,33.4,29.4,29.88,SW,215,7.3,7.3,85,0.00,,---,0.00,VWS V14.01,2013-01-06 09:19:00,
2013-01-06 04:24:00,33.4,29.4,29.88,SW,215,7.3,7.3,85,0.00,,---,0.00,VWS V14.01,2013-01-06 09:24:00,
2013-01-06 04:29:00,33.4,29.1,29.88,SW,215,7.3,7.3,84,0.00,,---,0.00,VWS V14.01,2013-01-06 09:29:00,
2013-01-06 04:34:00,33.4,29.1,29.88,SW,215,11.6,11.6,84,0.00,,---,0.00,VWS V14.01,2013-01-06 09:34:00,
2013-01-06 04:39:00,33.6,29.2,29.88,SW,215,11.6,11.6,84,0.00,,---,0.00,VWS V14.01,2013-01-06 09:39:00,
2013-01-06 04:44:00,33.6,29.2,29.88,SW,215,12.9,12.9,84,0.00,,---,0.00,VWS V14.01,2013-01-06 09:44:00,
2013-01-06 04:49:00,33.6,29.2,29.88,SW,215,12.9,12.9,84,0.00,,---,0.00,VWS V14.01,2013-01-06 09:49:00,
2013-01-06 04:54:00,33.7,29.1,29.88,SW,215,4.6,4.6,83,0.00,,---,0.00,VWS V14.01,2013-01-06 09:54:00,
2013-01-06 04:59:00,33.7,29.1,29.88,SW,215,4.6,4.6,83,0.00,,---,0.00,VWS V14.01,2013-01-06 09:59:00,
2013-01-06 05:04:00,33.7,29.1,29.88,West,260,10.9,10.9,83,0.00,,---,0.00,VWS V14.01,2013-01-06 10:04:00,
2013-01-06 05:09:00,33.7,29.1,29.88,West,260,10.9,10.9,83,0.00,,---,0.00,VWS V14.01,2013-01-06 10:09:00,
2013-01-06 05:15:00,33.7,29.1,29.88,SW,215,6.0,6.0,83,0.00,,---,0.00,VWS V14.01,2013-01-06 10:15:00,
2013-01-06 05:20:00,33.7,29.1,29.88,WSW,238,8.9,8.9,83,0.00,,---,0.00,VWS V14.01,2013-01-06 10:20:00,
2013-01-06 05:25:00,33.7,29.1,29.88,SW,215,8.3,8.3,83,0.00,,---,0.00,VWS V14.01,2013-01-06 10:25:00,
2013-01-06 05:30:00,33.7,29.1,29.88,West,260,7.9,7.9,83,0.00,,---,0.00,VWS V14.01,2013-01-06 10:30:00,
2013-01-06 05:35:00,33.7,28.8,29.88,SW,215,6.3,6.3,82,0.00,,---,0.00,VWS V14.01,2013-01-06 10:35:00,
2013-01-06 05:40:00,33.7,28.8,29.88,SW,215,7.3,7.3,82,0.00,,---,0.00,VWS V14.01,2013-01-06 10:40:00,
2013-01-06 05:45:00,33.7,28.8,29.88,SW,215,4.0,7.3,82,0.00,,---,0.00,VWS V14.01,2013-01-06 10:45:00,
2013-01-06 05:50:00,33.7,28.8,29.88,SW,215,4.0,4.0,82,0.00,,---,0.00,VWS V14.01,2013-01-06 10:50:00,
2013-01-06 05:55:00,33.7,28.8,29.88,SW,215,10.9,10.9,82,0.00,,---,0.00,VWS V14.01,2013-01-06 10:55:00,
2013-01-06 06:00:00,33.7,28.8,29.85,SW,215,5.3,7.9,82,0.00,,---,0.00,VWS V14.01,2013-01-06 11:00:00,
2013-01-06 06:05:00,33.7,28.8,29.85,SW,215,5.3,5.3,82,0.00,,---,0.00,VWS V14.01,2013-01-06 11:05:00,
2013-01-06 06:10:00,33.7,28.8,29.85,SW,215,5.3,5.3,82,0.00,,---,0.00,VWS V14.01,2013-01-06 11:10:00,
2013-01-06 06:15:00,33.7,28.8,29.85,SW,215,5.3,5.3,82,0.00,,---,0.00,VWS V14.01,2013-01-06 11:15:00,
2013-01-06 06:20:00,33.7,28.8,29.85,SW,215,5.3,5.3,82,0.00,,---,0.00,VWS V14.01,2013-01-06 11:20:00,
2013-01-06 06:25:00,33.7,29.1,29.85,SW,215,5.3,5.3,83,0.00,,---,0.00,VWS V14.01,2013-01-06 11:25:00,
2013-01-06 06:30:00,33.7,29.1,29.85,SW,215,5.3,5.3,83,0.00,,---,0.00,VWS V14.01,2013-01-06 11:30:00,
2013-01-06 06:35:00,33.7,29.1,29.85,SW,215,5.3,5.3,83,0.00,,---,0.00,VWS V14.01,2013-01-06 11:35:00,
2013-01-06 06:40:00,33.7,29.1,29.85,SW,215,5.3,5.3,83,0.00,,---,0.00,VWS V14.01,2013-01-06 11:40:00,
2013-01-06 06:45:00,33.7,28.8,29.85,SW,215,6.0,6.0,82,0.00,,---,0.00,VWS V14.01,2013-01-06 11:45:00,
2013-01-06 06:50:00,33.7,28.8,29.85,SW,215,6.0,6.0,82,0.00,,---,0.00,VWS V14.01,2013-01-06 11:50:00,
2013-01-06 06:55:00,33.7,28.8,29.85,SW,215,9.3,9.3,82,0.00,,---,0.00,VWS V14.01,2013-01-06 11:55:00,
2013-01-06 07:01:00,33.7,28.8,29.85,SW,215,6.3,6.3,82,0.00,,---,0.00,VWS V14.01,2013-01-06 12:01:00,
2013-01-06 07:06:00,33.7,28.8,29.85,SW,215,8.6,8.6,82,0.00,,---,0.00,VWS V14.01,2013-01-06 12:06:00,
2013-01-06 07:11:00,33.7,28.8,29.85,SW,215,4.6,4.6,82,0.00,,---,0.00,VWS V14.01,2013-01-06 12:11:00,
2013-01-06 07:16:00,33.7,28.8,29.85,SW,215,4.6,4.6,82,0.00,,---,0.00,VWS V14.01,2013-01-06 12:16:00,
2013-01-06 07:21:00,33.7,28.8,29.85,SW,215,4.6,4.6,82,0.00,,---,0.00,VWS V14.01,2013-01-06 12:21:00,
2013-01-06 07:26:00,33.7,28.8,29.85,SW,215,4.0,4.0,82,0.00,,---,0.00,VWS V14.01,2013-01-06 12:26:00,
2013-01-06 07:31:00,33.7,28.8,29.85,SW,215,4.0,4.0,82,0.00,,---,0.00,VWS V14.01,2013-01-06 12:31:00,
2013-01-06 07:36:00,33.7,28.8,29.85,SW,215,5.3,5.3,82,0.00,,---,0.00,VWS V14.01,2013-01-06 12:36:00,
2013-01-06 07:41:00,33.6,28.7,29.85,West,260,12.6,12.6,82,0.00,,---,0.00,VWS V14.01,2013-01-06 12:41:00,
2013-01-06 07:46:00,33.6,28.7,29.85,SW,215,5.6,5.6,82,0.00,,---,0.00,VWS V14.01,2013-01-06 12:46:00,
2013-01-06 07:51:00,33.6,28.7,29.85,SW,215,6.0,6.0,82,0.00,,---,0.00,VWS V14.01,2013-01-06 12:51:00,
2013-01-06 07:56:00,33.6,29.0,29.85,SW,215,8.3,8.3,83,0.00,,---,0.00,VWS V14.01,2013-01-06 12:56:00,
2013-01-06 08:01:00,33.4,28.8,29.85,SW,215,8.3,8.3,83,0.00,,---,0.00,VWS V14.01,2013-01-06 13:01:00,
2013-01-06 08:06:00,33.4,29.1,29.85,SW,215,7.9,7.9,84,0.00,,---,0.00,VWS V14.01,2013-01-06 13:06:00,
2013-01-06 08:11:00,33.4,29.1,29.85,SW,215,7.9,7.9,84,0.00,,---,0.00,VWS V14.01,2013-01-06 13:11:00,
2013-01-06 08:16:00,33.4,29.4,29.88,South,170,6.0,6.0,85,0.00,,---,0.00,VWS V14.01,2013-01-06 13:16:00,
2013-01-06 08:21:00,33.4,29.4,29.88,South,170,6.0,6.0,85,0.00,,---,0.00,VWS V14.01,2013-01-06 13:21:00,
2013-01-06 08:26:00,33.4,29.4,29.88,South,170,6.0,6.0,85,0.00,,---,0.00,VWS V14.01,2013-01-06 13:26:00,
2013-01-06 08:31:00,33.4,29.4,29.88,South,170,6.0,6.0,85,0.00,,---,0.00,VWS V14.01,2013-01-06 13:31:00,
2013-01-06 08:36:00,33.4,29.4,29.88,SW,215,10.9,10.9,85,0.00,,---,0.00,VWS V14.01,2013-01-06 13:36:00,
2013-01-06 08:41:00,33.4,29.4,29.88,West,260,7.3,7.3,85,0.00,,---,0.00,VWS V14.01,2013-01-06 13:41:00,
2013-01-06 08:47:00,33.4,29.4,29.88,South,170,8.9,8.9,85,0.00,,---,0.00,VWS V14.01,2013-01-06 13:47:00,
2013-01-06 08:52:00,33.6,29.5,29.88,West,260,12.6,12.6,85,0.00,,---,0.00,VWS V14.01,2013-01-06 13:52:00,
2013-01-06 08:57:00,33.6,29.5,29.88,SW,215,11.3,11.3,85,0.00,,---,0.00,VWS V14.01,2013-01-06 13:57:00,
2013-01-06 09:02:00,33.7,29.7,29.88,SW,215,11.3,11.3,85,0.00,,---,0.00,VWS V14.01,2013-01-06 14:02:00,
2013-01-06 09:07:00,33.7,29.7,29.88,West,260,8.9,8.9,85,0.00,,---,0.00,VWS V14.01,2013-01-06 14:07:00,
2013-01-06 09:12:00,33.7,29.7,29.88,SW,215,15.9,15.9,85,0.00,,---,0.00,VWS V14.01,2013-01-06 14:12:00,
2013-01-06 09:17:00,33.7,29.7,29.88,SW,215,15.9,15.9,85,0.00,,---,0.00,VWS V14.01,2013-01-06 14:17:00,
2013-01-06 09:22:00,33.7,29.4,29.88,West,260,19.2,19.2,84,0.00,,---,0.00,VWS V14.01,2013-01-06 14:22:00,
2013-01-06 09:27:00,33.6,29.0,29.88,WSW,238,11.6,11.6,83,0.00,,---,0.00,VWS V14.01,2013-01-06 14:27:00,
2013-01-06 09:32:00,33.6,28.7,29.88,West,260,9.6,9.6,82,0.00,,---,0.00,VWS V14.01,2013-01-06 14:32:00,
2013-01-06 09:37:00,33.6,28.4,29.88,SW,215,9.6,18.5,81,0.00,,---,0.00,VWS V14.01,2013-01-06 14:37:00,
2013-01-06 09:42:00,33.6,28.1,29.88,West,260,8.3,8.3,80,0.00,,---,0.00,VWS V14.01,2013-01-06 14:42:00,
2013-01-06 09:47:00,33.6,28.1,29.91,West,260,15.6,15.6,80,0.00,,---,0.00,VWS V14.01,2013-01-06 14:47:00,
2013-01-06 09:52:00,33.6,28.1,29.91,SW,215,13.9,13.9,80,0.00,,---,0.00,VWS V14.01,2013-01-06 14:52:00,
2013-01-06 09:58:00,33.6,28.1,29.91,West,260,15.9,15.9,80,0.00,,---,0.00,VWS V14.01,2013-01-06 14:58:00,
2013-01-06 10:03:00,33.2,27.1,29.91,WSW,238,7.9,15.9,78,0.00,,---,0.00,VWS V14.01,2013-01-06 15:03:00,
2013-01-06 10:08:00,33.2,27.4,29.91,SW,215,8.9,8.9,79,0.00,,---,0.00,VWS V14.01,2013-01-06 15:08:00,
2013-01-06 10:13:00,33.2,27.1,29.91,SW,215,11.3,19.2,78,0.00,,---,0.00,VWS V14.01,2013-01-06 15:13:00,
2013-01-06 10:18:00,33.2,27.1,29.91,West,260,5.6,5.6,78,0.00,,---,0.00,VWS V14.01,2013-01-06 15:18:00,
2013-01-06 10:23:00,33.0,27.2,29.91,West,260,10.9,10.9,79,0.00,,---,0.00,VWS V14.01,2013-01-06 15:23:00,
2013-01-06 10:28:00,33.0,27.2,29.91,West,260,10.9,10.9,79,0.00,,---,0.00,VWS V14.01,2013-01-06 15:28:00,
2013-01-06 10:33:00,33.0,27.2,29.91,West,260,10.9,10.9,79,0.00,,---,0.00,VWS V14.01,2013-01-06 15:33:00,
2013-01-06 10:38:00,32.8,27.0,29.91,West,260,10.9,10.9,79,0.00,,---,0.00,VWS V14.01,2013-01-06 15:38:00,
2013-01-06 10:43:00,32.7,26.9,29.94,West,260,10.9,10.9,79,0.00,,---,0.00,VWS V14.01,2013-01-06 15:43:00,
2013-01-06 10:48:00,32.7,26.9,29.94,West,260,10.9,10.9,79,0.00,,---,0.00,VWS V14.01,2013-01-06 15:48:00,
2013-01-06 10:53:00,32.7,26.6,29.94,West,260,10.9,10.9,78,0.00,,---,0.00,VWS V14.01,2013-01-06 15:53:00,
2013-01-06 10:58:00,32.5,26.4,29.94,West,260,9.6,9.6,78,0.00,,---,0.00,VWS V14.01,2013-01-06 15:58:00,
2013-01-06 11:03:00,32.5,26.4,29.94,WNW,282,11.6,11.6,78,0.00,,---,0.00,VWS V14.01,2013-01-06 16:03:00,
2013-01-06 11:08:00,32.5,26.4,29.94,West,260,10.6,10.6,78,0.00,,---,0.00,VWS V14.01,2013-01-06 16:08:00,
2013-01-06 11:13:00,32.3,25.9,29.94,West,260,10.9,10.9,77,0.00,,---,0.00,VWS V14.01,2013-01-06 16:13:00,
2013-01-06 11:18:00,32.3,25.9,29.94,West,260,7.9,7.9,77,0.00,,---,0.00,VWS V14.01,2013-01-06 16:18:00,
2013-01-06 11:24:00,32.3,25.6,29.94,SW,215,6.3,6.3,76,0.00,,---,0.00,VWS V14.01,2013-01-06 16:24:00,
2013-01-06 11:29:00,32.1,25.4,29.94,West,260,9.3,9.3,76,0.00,,---,0.00,VWS V14.01,2013-01-06 16:29:00,
2013-01-06 11:34:00,32.1,25.1,29.94,West,260,11.6,11.6,75,0.00,,---,0.00,VWS V14.01,2013-01-06 16:34:00,
2013-01-06 11:39:00,32.1,25.4,29.94,SW,215,6.3,7.9,76,0.00,,---,0.00,VWS V14.01,2013-01-06 16:39:00,
2013-01-06 11:44:00,31.9,24.9,29.94,SW,215,11.6,11.6,75,0.00,,---,0.00,VWS V14.01,2013-01-06 16:44:00,
2013-01-06 11:49:00,31.9,25.2,29.94,SW,215,11.6,11.6,76,0.00,,---,0.00,VWS V14.01,2013-01-06 16:49:00,
2013-01-06 11:54:00,31.9,25.2,29.94,West,260,14.2,14.2,76,0.00,,---,0.00,VWS V14.01,2013-01-06 16:54:00,
2013-01-06 11:59:00,31.9,25.2,29.94,WSW,238,7.3,11.3,76,0.00,,---,0.00,VWS V14.01,2013-01-06 16:59:00,
2013-01-06 12:04:00,31.8,25.1,29.94,WSW,238,7.3,7.3,76,0.00,,---,0.00,VWS V14.01,2013-01-06 17:04:00,
2013-01-06 12:09:00,31.8,25.1,29.94,West,260,7.3,11.6,76,0.00,,---,0.00,VWS V14.01,2013-01-06 17:09:00,
2013-01-06 12:14:00,31.8,25.4,29.94,NW,305,4.3,4.3,77,0.00,,---,0.00,VWS V14.01,2013-01-06 17:14:00,
2013-01-06 12:19:00,31.8,25.4,29.94,West,260,11.3,11.3,77,0.00,,---,0.00,VWS V14.01,2013-01-06 17:19:00,
2013-01-06 12:24:00,31.8,25.4,29.94,West,260,7.9,7.9,77,0.00,,---,0.00,VWS V14.01,2013-01-06 17:24:00,
2013-01-06 12:29:00,31.8,25.7,29.94,West,260,7.9,7.9,78,0.00,,---,0.00,VWS V14.01,2013-01-06 17:29:00,
2013-01-06 12:34:00,31.6,25.2,29.94,NE,35,4.3,5.3,77,0.00,,---,0.00,VWS V14.01,2013-01-06 17:34:00,
2013-01-06 12:39:00,31.6,25.2,29.94,West,260,13.2,13.2,77,0.00,,---,0.00,VWS V14.01,2013-01-06 17:39:00,
2013-01-06 12:44:00,31.6,25.2,29.94,West,260,8.6,8.6,77,0.00,,---,0.00,VWS V14.01,2013-01-06 17:44:00,
2013-01-06 12:50:00,31.6,25.2,29.94,NW,305,14.2,14.2,77,0.00,,---,0.00,VWS V14.01,2013-01-06 17:50:00,
2013-01-06 12:55:00,31.4,24.7,29.94,NW,305,12.6,12.6,76,0.00,,---,0.00,VWS V14.01,2013-01-06 17:55:00,
2013-01-06 13:00:00,31.4,24.7,29.94,West,260,10.9,19.2,76,0.00,,---,0.00,VWS V14.01,2013-01-06 18:00:00,
2013-01-06 13:05:00,31.2,24.2,29.94,NW,305,5.3,5.3,75,0.00,,---,0.00,VWS V14.01,2013-01-06 18:05:00,
2013-01-06 13:10:00,31.4,24.1,29.94,SW,215,4.6,4.6,74,0.00,,---,0.00,VWS V14.01,2013-01-06 18:10:00,
2013-01-06 13:15:00,31.4,24.1,29.94,North,350,5.6,5.6,74,0.00,,---,0.00,VWS V14.01,2013-01-06 18:15:00,
2013-01-06 13:20:00,31.4,24.1,29.94,West,260,8.9,8.9,74,0.00,,---,0.00,VWS V14.01,2013-01-06 18:20:00,
2013-01-06 13:25:00,31.4,24.1,29.94,WNW,282,8.6,8.6,74,0.00,,---,0.00,VWS V14.01,2013-01-06 18:25:00,
2013-01-06 13:30:00,31.4,24.1,29.97,NW,305,4.3,4.3,74,0.00,,---,0.00,VWS V14.01,2013-01-06 18:30:00,
2013-01-06 13:35:00,31.4,24.1,29.97,NW,305,4.3,4.3,74,0.00,,---,0.00,VWS V14.01,2013-01-06 18:35:00,
2013-01-06 13:40:00,31.6,23.9,29.97,NE,35,4.6,4.6,73,0.00,,---,0.00,VWS V14.01,2013-01-06 18:40:00,
2013-01-06 13:45:00,31.4,23.8,29.97,WNW,282,0.0,11.3,73,0.00,,---,0.00,VWS V14.01,2013-01-06 18:45:00,
2013-01-06 13:50:00,31.4,23.8,29.97,West,260,8.9,8.9,73,0.00,,---,0.00,VWS V14.01,2013-01-06 18:50:00,
2013-01-06 13:56:00,31.4,24.1,29.97,West,260,8.9,8.9,74,0.00,,---,0.00,VWS V14.01,2013-01-06 18:56:00,
2013-01-06 14:01:00,31.4,24.1,29.97,West,260,12.6,12.6,74,0.00,,---,0.00,VWS V14.01,2013-01-06 19:01:00,
2013-01-06 14:06:00,31.4,24.1,29.97,West,260,12.6,12.6,74,0.00,,---,0.00,VWS V14.01,2013-01-06 19:06:00,
2013-01-06 14:11:00,31.4,24.1,29.97,West,260,12.6,12.6,74,0.00,,---,0.00,VWS V14.01,2013-01-06 19:11:00,
2013-01-06 14:16:00,31.6,24.3,29.97,NW,305,4.0,4.0,74,0.00,,---,0.00,VWS V14.01,2013-01-06 19:16:00,
2013-01-06 14:21:00,31.6,24.3,29.97,NW,305,4.0,4.0,74,0.00,,---,0.00,VWS V14.01,2013-01-06 19:21:00,
2013-01-06 14:26:00,31.6,24.3,29.97,NW,305,4.0,4.0,74,0.00,,---,0.00,VWS V14.01,2013-01-06 19:26:00,
2013-01-06 14:31:00,31.6,24.6,29.97,West,260,5.3,5.3,75,0.00,,---,0.00,VWS V14.01,2013-01-06 19:31:00,
2013-01-06 14:36:00,31.6,24.6,29.97,WNW,282,8.3,8.3,75,0.00,,---,0.00,VWS V14.01,2013-01-06 19:36:00,
2013-01-06 14:41:00,31.6,24.3,29.97,West,260,0.0,8.9,74,0.00,,---,0.00,VWS V14.01,2013-01-06 19:41:00,
2013-01-06 14:46:00,31.8,24.8,29.97,West,260,4.0,4.0,75,0.00,,---,0.00,VWS V14.01,2013-01-06 19:46:00,
2013-01-06 14:52:00,31.8,24.8,29.97,West,260,7.3,7.3,75,0.00,,---,0.00,VWS V14.01,2013-01-06 19:52:00,
2013-01-06 14:57:00,32.1,25.1,29.97,WSW,238,3.6,3.6,75,0.00,,---,0.00,VWS V14.01,2013-01-06 19:57:00,
2013-01-06 15:04:00,32.3,25.3,29.97,NW,305,5.3,5.3,75,0.00,,---,0.00,VWS V14.01,2013-01-06 20:04:00,
2013-01-06 15:10:00,32.3,25.6,29.97,NW,305,5.3,5.3,76,0.00,,---,0.00,VWS V14.01,2013-01-06 20:10:00,
2013-01-06 15:11:00,32.3,25.6,29.97,NW,305,5.3,5.3,76,0.00,,---,0.00,VWS V14.01,2013-01-06 20:11:00,
2013-01-06 15:13:00,32.3,25.6,30.00,NW,305,5.3,5.3,76,0.00,,---,0.00,VWS V14.01,2013-01-06 20:13:00,
2013-01-06 15:18:00,32.3,25.6,30.00,NW,305,5.3,5.3,76,0.00,,---,0.00,VWS V14.01,2013-01-06 20:18:00,
2013-01-06 15:23:00,32.3,25.6,30.00,West,260,5.0,5.3,76,0.00,,---,0.00,VWS V14.01,2013-01-06 20:23:00,
2013-01-06 15:28:00,32.3,25.6,30.00,West,260,5.0,5.0,76,0.00,,---,0.00,VWS V14.01,2013-01-06 20:28:00,
2013-01-06 15:34:00,32.3,25.6,30.00,West,260,5.0,5.0,76,0.00,,---,0.00,VWS V14.01,2013-01-06 20:34:00,
2013-01-06 15:39:00,32.3,25.9,30.00,West,260,5.0,5.0,77,0.00,,---,0.00,VWS V14.01,2013-01-06 20:39:00,
2013-01-06 15:44:00,32.1,25.7,30.00,WNW,282,6.0,6.0,77,0.00,,---,0.00,VWS V14.01,2013-01-06 20:44:00,
2013-01-06 15:49:00,32.1,26.0,30.00,West,260,1.3,1.3,78,0.00,,---,0.00,VWS V14.01,2013-01-06 20:49:00,
2013-01-06 15:54:00,32.1,26.0,30.00,West,260,3.6,3.6,78,0.00,,---,0.00,VWS V14.01,2013-01-06 20:54:00,
2013-01-06 15:59:00,32.1,26.4,30.03,NW,305,6.3,6.3,79,0.00,,---,0.00,VWS V14.01,2013-01-06 20:59:00,
2013-01-06 16:02:00,32.1,26.4,30.03,NW,305,6.3,6.3,79,0.00,,---,0.00,VWS V14.01,2013-01-06 21:02:00,
2013-01-06 16:07:00,32.1,26.4,30.03,West,260,3.6,6.3,79,0.00,,---,0.00,VWS V14.01,2013-01-06 21:07:00,
2013-01-06 16:12:00,32.5,26.7,30.03,West,260,3.6,3.6,79,0.00,,---,0.00,VWS V14.01,2013-01-06 21:12:00,
2013-01-06 16:17:00,32.5,27.0,30.03,West,260,10.9,10.9,80,0.00,,---,0.00,VWS V14.01,2013-01-06 21:17:00,
2013-01-06 16:22:00,32.5,27.0,30.03,North,350,0.0,0.0,80,0.00,,---,0.00,VWS V14.01,2013-01-06 21:22:00,
2013-01-06 16:27:00,32.7,27.2,30.03,West,260,4.6,4.6,80,0.00,,---,0.00,VWS V14.01,2013-01-06 21:27:00,
2013-01-06 16:32:00,32.7,27.2,30.03,NW,305,5.6,5.6,80,0.00,,---,0.00,VWS V14.01,2013-01-06 21:32:00,
2013-01-06 16:37:00,32.7,27.2,30.03,West,260,6.0,6.0,80,0.00,,---,0.00,VWS V14.01,2013-01-06 21:37:00,
2013-01-06 16:42:00,32.7,27.2,30.03,North,350,8.3,8.3,80,0.00,,---,0.00,VWS V14.01,2013-01-06 21:42:00,
2013-01-06 16:47:00,32.7,27.2,30.06,West,260,2.0,2.0,80,0.00,,---,0.00,VWS V14.01,2013-01-06 21:47:00,
2013-01-06 16:52:00,32.7,27.5,30.06,North,350,4.6,4.6,81,0.00,,---,0.00,VWS V14.01,2013-01-06 21:52:00,
2013-01-06 16:57:00,32.8,27.4,30.06,West,260,2.0,2.0,80,0.00,,---,0.00,VWS V14.01,2013-01-06 21:57:00,
2013-01-06 17:02:00,32.8,27.4,30.06,North,350,1.7,1.7,80,0.00,,---,0.00,VWS V14.01,2013-01-06 22:02:00,
2013-01-06 17:08:00,32.8,27.4,30.06,North,350,1.3,1.3,80,0.00,,---,0.00,VWS V14.01,2013-01-06 22:08:00,
2013-01-06 17:13:00,33.0,27.5,30.06,NW,305,7.0,7.0,80,0.00,,---,0.00,VWS V14.01,2013-01-06 22:13:00,
2013-01-06 17:18:00,33.0,27.5,30.09,NW,305,7.0,7.0,80,0.00,,---,0.00,VWS V14.01,2013-01-06 22:18:00,
2013-01-06 17:23:00,32.8,27.4,30.09,NW,305,7.0,7.0,80,0.00,,---,0.00,VWS V14.01,2013-01-06 22:23:00,
2013-01-06 17:28:00,32.8,27.4,30.09,NW,305,5.0,5.0,80,0.00,,---,0.00,VWS V14.01,2013-01-06 22:28:00,
2013-01-06 17:33:00,32.8,27.4,30.09,WNW,282,4.6,4.6,80,0.00,,---,0.00,VWS V14.01,2013-01-06 22:33:00,
2013-01-06 17:38:00,32.8,27.4,30.09,NW,305,8.3,8.3,80,0.00,,---,0.00,VWS V14.01,2013-01-06 22:38:00,
2013-01-06 17:43:00,32.8,27.4,30.09,North,350,4.6,5.6,80,0.00,,---,0.00,VWS V14.01,2013-01-06 22:43:00,
2013-01-06 17:48:00,32.5,26.4,30.09,NW,305,3.6,6.3,78,0.00,,---,0.00,VWS V14.01,2013-01-06 22:48:00,
2013-01-06 17:53:00,32.3,26.2,30.09,NW,305,3.6,8.9,78,0.00,,---,0.00,VWS V14.01,2013-01-06 22:53:00,
2013-01-06 17:58:00,32.5,26.4,30.09,North,350,3.6,3.6,78,0.00,,---,0.00,VWS V14.01,2013-01-06 22:58:00,
2013-01-06 18:03:00,32.3,26.2,30.09,NW,305,4.6,4.6,78,0.00,,---,0.00,VWS V14.01,2013-01-06 23:03:00,
2013-01-06 18:08:00,32.3,26.2,30.09,NW,305,2.0,8.3,78,0.00,,---,0.00,VWS V14.01,2013-01-06 23:08:00,
2013-01-06 18:13:00,32.3,25.9,30.12,SW,215,5.0,5.0,77,0.00,,---,0.00,VWS V14.01,2013-01-06 23:13:00,
2013-01-06 18:18:00,32.3,25.9,30.12,WNW,282,3.3,3.3,77,0.00,,---,0.00,VWS V14.01,2013-01-06 23:18:00,
2013-01-06 18:23:00,32.5,26.4,30.12,NW,305,4.3,5.0,78,0.00,,---,0.00,VWS V14.01,2013-01-06 23:23:00,
2013-01-06 18:28:00,32.5,26.4,30.12,NW,305,5.3,5.3,78,0.00,,---,0.00,VWS V14.01,2013-01-06 23:28:00,
2013-01-06 18:33:00,32.5,26.4,30.12,North,350,2.3,6.0,78,0.00,,---,0.00,VWS V14.01,2013-01-06 23:33:00,
2013-01-06 18:38:00,32.5,26.4,30.12,North,350,5.0,5.0,78,0.00,,---,0.00,VWS V14.01,2013-01-06 23:38:00,
2013-01-06 18:44:00,32.5,26.4,30.12,North,350,3.0,3.0,78,0.00,,---,0.00,VWS V14.01,2013-01-06 23:44:00,
2013-01-06 18:49:00,32.3,25.9,30.12,NW,305,5.3,5.3,77,0.00,,---,0.00,VWS V14.01,2013-01-06 23:49:00,
2013-01-06 18:54:00,32.3,25.9,30.12,NW,305,3.6,3.6,77,0.00,,---,0.00,VWS V14.01,2013-01-06 23:54:00,
2013-01-06 18:59:00,32.5,26.4,30.15,North,350,7.3,7.3,78,0.00,,---,0.00,VWS V14.01,2013-01-06 23:59:00,
2013-01-06 19:04:00,32.5,26.4,30.15,North,350,0.0,5.6,78,0.00,,---,0.00,VWS V14.01,2013-01-07 00:04:00,
2013-01-06 19:09:00,32.5,26.4,30.15,North,350,2.3,4.6,78,0.00,,---,0.00,VWS V14.01,2013-01-07 00:09:00,
2013-01-06 19:14:00,32.5,26.4,30.15,North,350,6.0,6.0,78,0.00,,---,0.00,VWS V14.01,2013-01-07 00:14:00,
2013-01-06 19:19:00,32.5,26.4,30.15,NE,35,1.3,4.0,78,0.00,,---,0.00,VWS V14.01,2013-01-07 00:19:00,
2013-01-06 19:24:00,32.5,26.4,30.15,NE,35,5.6,5.6,78,0.00,,---,0.00,VWS V14.01,2013-01-07 00:24:00,
2013-01-06 19:29:00,32.3,25.9,30.15,North,350,1.3,5.6,77,0.00,,---,0.00,VWS V14.01,2013-01-07 00:29:00,
2013-01-06 19:34:00,32.3,25.9,30.15,North,350,4.0,4.0,77,0.00,,---,0.00,VWS V14.01,2013-01-07 00:34:00,
2013-01-06 19:39:00,32.3,25.9,30.15,NW,305,5.6,11.3,77,0.00,,---,0.00,VWS V14.01,2013-01-07 00:39:00,
2013-01-06 19:44:00,32.3,25.6,30.18,North,350,3.0,4.3,76,0.00,,---,0.00,VWS V14.01,2013-01-07 00:44:00,
2013-01-06 19:49:00,32.3,25.6,30.18,North,350,12.6,12.6,76,0.00,,---,0.00,VWS V14.01,2013-01-07 00:49:00,
2013-01-06 19:55:00,32.3,25.3,30.18,NE,35,3.6,5.0,75,0.00,,---,0.00,VWS V14.01,2013-01-07 00:55:00,
2013-01-06 20:00:00,32.3,25.3,30.18,WNW,282,5.3,5.6,75,0.00,,---,0.00,VWS V14.01,2013-01-07 01:00:00,
2013-01-06 20:05:00,32.1,25.1,30.18,WNW,282,5.3,5.3,75,0.00,,---,0.00,VWS V14.01,2013-01-07 01:05:00,
2013-01-06 20:10:00,32.3,25.0,30.18,WNW,282,5.3,5.3,74,0.00,,---,0.00,VWS V14.01,2013-01-07 01:10:00,
2013-01-06 20:15:00,32.3,24.6,30.18,WNW,282,5.3,5.3,73,0.00,,---,0.00,VWS V14.01,2013-01-07 01:15:00,
2013-01-06 20:20:00,32.1,24.8,30.18,WNW,282,5.3,5.3,74,0.00,,---,0.00,VWS V14.01,2013-01-07 01:20:00,
2013-01-06 20:25:00,32.1,24.8,30.18,WNW,282,5.3,5.3,74,0.00,,---,0.00,VWS V14.01,2013-01-07 01:25:00,
2013-01-06 20:30:00,32.1,24.5,30.18,WNW,282,5.3,5.3,73,0.00,,---,0.00,VWS V14.01,2013-01-07 01:30:00,
2013-01-06 20:35:00,32.1,24.5,30.18,WNW,282,5.3,5.3,73,0.00,,---,0.00,VWS V14.01,2013-01-07 01:35:00,
2013-01-06 20:40:00,32.1,24.5,30.18,WNW,282,5.3,5.3,73,0.00,,---,0.00,VWS V14.01,2013-01-07 01:40:00,
2013-01-06 20:45:00,31.9,24.3,30.18,NNW,328,4.0,4.0,73,0.00,,---,0.00,VWS V14.01,2013-01-07 01:45:00,
2013-01-06 20:50:00,31.9,24.3,30.18,NNW,328,4.0,4.0,73,0.00,,---,0.00,VWS V14.01,2013-01-07 01:50:00,
2013-01-06 20:55:00,31.9,24.0,30.18,NNW,328,4.0,4.0,72,0.00,,---,0.00,VWS V14.01,2013-01-07 01:55:00,
2013-01-06 21:01:00,31.9,24.0,30.21,NNW,328,4.0,4.0,72,0.00,,---,0.00,VWS V14.01,2013-01-07 02:01:00,
2013-01-06 21:06:00,31.9,24.0,30.21,North,350,0.0,0.0,72,0.00,,---,0.00,VWS V14.01,2013-01-07 02:06:00,
2013-01-06 21:11:00,31.9,24.0,30.21,North,350,1.7,1.7,72,0.00,,---,0.00,VWS V14.01,2013-01-07 02:11:00,
2013-01-06 21:16:00,31.9,24.0,30.21,West,260,0.0,0.0,72,0.00,,---,0.00,VWS V14.01,2013-01-07 02:16:00,
2013-01-06 21:21:00,31.8,23.8,30.21,West,260,0.0,0.0,72,0.00,,---,0.00,VWS V14.01,2013-01-07 02:21:00,
2013-01-06 21:26:00,31.8,23.8,30.21,NW,305,2.0,2.0,72,0.00,,---,0.00,VWS V14.01,2013-01-07 02:26:00,
2013-01-06 21:31:00,31.6,23.6,30.21,NW,305,2.0,2.0,72,0.00,,---,0.00,VWS V14.01,2013-01-07 02:31:00,
2013-01-06 21:36:00,31.6,23.6,30.21,NNW,328,2.3,2.3,72,0.00,,---,0.00,VWS V14.01,2013-01-07 02:36:00,
2013-01-06 21:41:00,31.6,23.6,30.21,NNW,328,2.3,2.3,72,0.00,,---,0.00,VWS V14.01,2013-01-07 02:41:00,
2013-01-06 21:46:00,31.6,23.6,30.21,North,350,0.0,0.0,72,0.00,,---,0.00,VWS V14.01,2013-01-07 02:46:00,
2013-01-06 21:51:00,31.6,23.6,30.21,North,350,0.0,0.0,72,0.00,,---,0.00,VWS V14.01,2013-01-07 02:51:00,
2013-01-06 21:56:00,31.6,23.6,30.21,NW,305,3.3,3.3,72,0.00,,---,0.00,VWS V14.01,2013-01-07 02:56:00,
2013-01-06 22:01:00,31.6,23.6,30.21,NW,305,0.0,3.3,72,0.00,,---,0.00,VWS V14.01,2013-01-07 03:01:00,
2013-01-06 22:06:00,31.6,23.6,30.21,NW,305,0.0,0.0,72,0.00,,---,0.00,VWS V14.01,2013-01-07 03:06:00,
2013-01-06 22:11:00,31.4,23.8,30.21,NE,35,0.0,0.0,73,0.00,,---,0.00,VWS V14.01,2013-01-07 03:11:00,
2013-01-06 22:16:00,31.4,23.8,30.24,NW,305,0.0,0.0,73,0.00,,---,0.00,VWS V14.01,2013-01-07 03:16:00,
2013-01-06 22:22:00,31.4,23.8,30.24,North,350,0.0,0.0,73,0.00,,---,0.00,VWS V14.01,2013-01-07 03:22:00,
2013-01-06 22:27:00,31.4,23.8,30.24,North,350,2.0,2.0,73,0.00,,---,0.00,VWS V14.01,2013-01-07 03:27:00,
2013-01-06 22:32:00,31.4,23.8,30.24,NW,305,0.0,0.0,73,0.00,,---,0.00,VWS V14.01,2013-01-07 03:32:00,
2013-01-06 22:37:00,31.4,23.8,30.24,NW,305,0.0,3.6,73,0.00,,---,0.00,VWS V14.01,2013-01-07 03:37:00,
2013-01-06 22:42:00,31.4,23.8,30.24,NNW,328,0.0,0.0,73,0.00,,---,0.00,VWS V14.01,2013-01-07 03:42:00,
2013-01-06 22:47:00,31.2,23.6,30.24,NNW,328,0.0,0.0,73,0.00,,---,0.00,VWS V14.01,2013-01-07 03:47:00,
2013-01-06 22:52:00,31.2,23.6,30.24,NNW,328,0.0,0.0,73,0.00,,---,0.00,VWS V14.01,2013-01-07 03:52:00,
2013-01-06 22:57:00,31.0,23.4,30.24,NNW,328,0.0,0.0,73,0.00,,---,0.00,VWS V14.01,2013-01-07 03:57:00,
2013-01-06 23:02:00,31.0,23.4,30.24,NNW,328,0.0,0.0,73,0.00,,---,0.00,VWS V14.01,2013-01-07 04:02:00,
2013-01-06 23:07:00,31.0,23.4,30.24,NNW,328,0.0,0.0,73,0.00,,---,0.00,VWS V14.01,2013-01-07 04:07:00,
2013-01-06 23:12:00,31.0,23.4,30.24,NNW,328,0.0,0.0,73,0.00,,---,0.00,VWS V14.01,2013-01-07 04:12:00,
2013-01-06 23:17:00,30.9,23.2,30.24,NNW,328,0.0,0.0,73,0.00,,---,0.00,VWS V14.01,2013-01-07 04:17:00,
2013-01-06 23:22:00,30.9,23.2,30.24,NNW,328,0.0,0.0,73,0.00,,---,0.00,VWS V14.01,2013-01-07 04:22:00,
2013-01-06 23:27:00,30.9,23.2,30.24,NNW,328,0.0,0.0,73,0.00,,---,0.00,VWS V14.01,2013-01-07 04:27:00,
2013-01-06 23:32:00,30.7,23.4,30.24,NNW,328,0.0,0.0,74,0.00,,---,0.00,VWS V14.01,2013-01-07 04:32:00,
2013-01-06 23:37:00,30.7,23.4,30.24,NNW,328,0.0,0.0,74,0.00,,---,0.00,VWS V14.01,2013-01-07 04:37:00,
2013-01-06 23:42:00,30.5,23.2,30.24,NNW,328,0.0,0.0,74,0.00,,---,0.00,VWS V14.01,2013-01-07 04:42:00,
2013-01-06 23:47:00,30.5,23.2,30.24,SE,125,0.0,0.0,74,0.00,,---,0.00,VWS V14.01,2013-01-07 04:47:00,
2013-01-06 23:52:00,30.5,23.2,30.24,SW,215,0.0,0.0,74,0.00,,---,0.00,VWS V14.01,2013-01-07 04:52:00,
2013-01-06 23:57:00,30.5,23.2,30.24,SW,215,0.0,0.0,74,0.00,,---,0.00,VWS V14.01,2013-01-07 04:57:00,